createdAt,value
2017-09-25T00:00:08.078Z,15.64
2017-09-25T00:01:08.104Z,15.6
2017-09-25T00:02:07.802Z,15.67
2017-09-25T00:03:08.194Z,15.6
2017-09-25T00:04:22.763Z,15.64
2017-09-25T00:05:08.191Z,15.65
2017-09-25T00:06:08.262Z,15.64
2017-09-25T00:07:08.238Z,15.54
2017-09-25T00:08:08.259Z,15.57
2017-09-25T00:09:08.285Z,15.6
2017-09-25T00:12:08.353Z,15.54
2017-09-25T00:13:08.062Z,15.56
2017-09-25T00:14:08.406Z,15.5
2017-09-25T00:15:08.425Z,15.46
2017-09-25T00:16:08.448Z,15.47
2017-09-25T00:17:08.466Z,15.41
2017-09-25T00:18:08.489Z,15.43
2017-09-25T00:19:08.513Z,15.5
2017-09-25T00:20:23.126Z,15.47
2017-09-25T00:21:08.557Z,15.43
2017-09-25T00:22:08.582Z,15.36
2017-09-25T00:23:08.605Z,15.43
2017-09-25T00:24:08.307Z,15.39
2017-09-25T00:25:08.645Z,15.29
2017-09-25T00:26:08.669Z,15.28
2017-09-25T00:27:08.378Z,15.31
2017-09-25T00:29:08.741Z,15.28
2017-09-25T00:30:08.761Z,15.27
2017-09-25T00:31:08.790Z,15.29
2017-09-25T00:32:08.807Z,15.21
2017-09-25T00:33:08.830Z,15.25
2017-09-25T00:35:08.874Z,15.1
2017-09-25T00:36:23.490Z,15.1
2017-09-25T00:37:08.925Z,15.25
2017-09-25T00:39:23.559Z,15.09
2017-09-25T00:40:08.993Z,15.13
2017-09-25T00:41:09.011Z,15.09
2017-09-25T00:42:09.033Z,15.13
2017-09-25T00:43:09.061Z,15.13
2017-09-25T00:44:09.082Z,15.03
2017-09-25T00:45:09.104Z,15.06
2017-09-25T00:46:08.806Z,14.99
2017-09-25T00:47:08.829Z,15.01
2017-09-25T00:48:09.174Z,14.94
2017-09-25T00:49:09.194Z,14.95
2017-09-25T00:50:09.217Z,14.95
2017-09-25T00:51:23.513Z,14.91
2017-09-25T00:52:09.268Z,14.91
2017-09-25T00:53:08.965Z,14.95
2017-09-25T00:55:09.012Z,14.91
2017-09-25T00:56:09.037Z,14.88
2017-09-25T00:57:09.380Z,14.86
2017-09-25T00:58:09.078Z,14.81
2017-09-25T00:59:09.420Z,14.77
2017-09-25T01:00:09.125Z,14.88
2017-09-25T01:01:09.149Z,14.88
2017-09-25T01:02:09.489Z,14.86
2017-09-25T01:03:09.566Z,14.78
2017-09-25T01:04:09.219Z,14.75
2017-09-25T01:05:09.560Z,14.78
2017-09-25T01:06:09.575Z,14.75
2017-09-25T01:07:09.284Z,14.7
2017-09-25T01:08:09.636Z,14.73
2017-09-25T01:09:24.239Z,14.77
2017-09-25T01:10:09.675Z,14.73
2017-09-25T01:11:09.697Z,14.65
2017-09-25T01:12:09.717Z,14.69
2017-09-25T01:13:09.734Z,14.62
2017-09-25T01:14:09.441Z,14.65
2017-09-25T01:15:09.782Z,14.64
2017-09-25T01:16:09.486Z,14.6
2017-09-25T01:17:09.507Z,14.62
2017-09-25T01:18:09.852Z,14.65
2017-09-25T01:19:09.557Z,14.62
2017-09-25T01:20:09.576Z,14.62
2017-09-25T01:21:09.600Z,14.6
2017-09-25T01:22:24.536Z,14.65
2017-09-25T01:23:24.552Z,14.69
2017-09-25T01:24:09.982Z,14.72
2017-09-25T01:25:10.007Z,14.61
2017-09-25T01:26:10.030Z,14.73
2017-09-25T01:27:09.731Z,14.55
2017-09-25T01:28:10.078Z,14.62
2017-09-25T01:29:09.779Z,14.62
2017-09-25T01:30:10.116Z,14.62
2017-09-25T01:31:10.140Z,14.7
2017-09-25T01:32:09.844Z,14.7
2017-09-25T01:33:10.193Z,14.68
2017-09-25T01:34:10.208Z,14.64
2017-09-25T01:35:10.228Z,14.46
2017-09-25T01:36:09.938Z,14.6
2017-09-25T01:37:10.275Z,14.6
2017-09-25T01:38:10.303Z,14.62
2017-09-25T01:39:24.915Z,14.64
2017-09-25T01:40:10.026Z,14.61
2017-09-25T01:41:24.959Z,14.73
2017-09-25T01:42:10.399Z,14.61
2017-09-25T01:43:10.410Z,14.72
2017-09-25T01:44:10.437Z,14.65
2017-09-25T01:45:10.459Z,14.64
2017-09-25T01:46:10.479Z,14.62
2017-09-25T01:47:10.508Z,14.65
2017-09-25T01:48:10.528Z,14.64
2017-09-25T01:49:10.546Z,14.62
2017-09-25T01:50:10.280Z,14.7
2017-09-25T01:51:10.591Z,14.62
2017-09-25T01:52:10.612Z,14.73
2017-09-25T01:53:10.635Z,14.77
2017-09-25T01:54:10.657Z,14.75
2017-09-25T01:56:10.706Z,14.72
2017-09-25T01:57:10.724Z,14.83
2017-09-25T01:58:25.339Z,14.8
2017-09-25T01:59:10.765Z,14.81
2017-09-25T02:00:10.795Z,14.8
2017-09-25T02:01:10.501Z,14.7
2017-09-25T02:02:10.835Z,14.73
2017-09-25T02:03:10.871Z,14.72
2017-09-25T02:04:10.885Z,14.61
2017-09-25T02:05:10.904Z,14.64
2017-09-25T02:06:10.927Z,14.65
2017-09-25T02:07:10.944Z,14.64
2017-09-25T02:08:11.000Z,14.64
2017-09-25T02:09:10.676Z,14.69
2017-09-25T02:10:11.015Z,14.62
2017-09-25T02:11:25.631Z,14.61
2017-09-25T02:12:10.742Z,14.64
2017-09-25T02:13:25.675Z,14.69
2017-09-25T02:15:11.132Z,14.69
2017-09-25T02:16:10.834Z,14.62
2017-09-25T02:17:10.853Z,14.45
2017-09-25T02:18:11.199Z,14.62
2017-09-25T02:19:10.898Z,14.62
2017-09-25T02:20:11.240Z,14.69
2017-09-25T02:21:11.261Z,14.62
2017-09-25T02:22:10.967Z,14.6
2017-09-25T02:23:10.990Z,14.62
2017-09-25T02:24:11.010Z,14.65
2017-09-25T02:25:11.353Z,14.68
2017-09-25T02:26:25.963Z,14.65
2017-09-25T02:27:11.395Z,14.73
2017-09-25T02:28:11.421Z,14.69
2017-09-25T02:29:11.122Z,14.64
2017-09-25T02:30:11.146Z,14.62
2017-09-25T02:31:11.494Z,14.69
2017-09-25T02:32:11.506Z,14.65
2017-09-25T02:33:11.585Z,14.64
2017-09-25T02:34:11.571Z,14.7
2017-09-25T02:35:11.576Z,14.73
2017-09-25T02:36:11.597Z,14.61
2017-09-25T02:37:26.220Z,14.68
2017-09-25T02:38:26.242Z,14.68
2017-09-25T02:39:11.668Z,14.68
2017-09-25T02:40:11.689Z,14.7
2017-09-25T02:41:11.714Z,14.68
2017-09-25T02:42:11.413Z,14.58
2017-09-25T02:43:11.753Z,14.6
2017-09-25T02:44:11.777Z,14.62
2017-09-25T02:45:26.391Z,14.68
2017-09-25T02:46:26.412Z,14.65
2017-09-25T02:47:11.524Z,14.68
2017-09-25T02:48:11.870Z,14.62
2017-09-25T02:49:11.896Z,14.65
2017-09-25T02:50:11.597Z,14.6
2017-09-25T02:51:11.613Z,14.65
2017-09-25T02:52:11.955Z,14.61
2017-09-25T02:53:11.662Z,14.65
2017-09-25T02:54:11.682Z,14.65
2017-09-25T02:55:11.384Z,14.58
2017-09-25T02:56:12.045Z,14.72
2017-09-25T02:57:11.744Z,14.72
2017-09-25T02:58:26.680Z,14.6
2017-09-25T02:59:11.793Z,14.68
2017-09-25T03:00:12.130Z,14.58
2017-09-25T03:01:12.155Z,14.62
2017-09-25T03:03:11.881Z,14.52
2017-09-25T03:04:12.224Z,14.62
2017-09-25T03:06:11.948Z,14.62
2017-09-25T03:07:12.291Z,14.65
2017-09-25T03:08:11.993Z,14.6
2017-09-25T03:09:12.333Z,14.57
2017-09-25T03:10:12.356Z,14.7
2017-09-25T03:11:12.380Z,14.65
2017-09-25T03:12:12.404Z,14.69
2017-09-25T03:13:12.422Z,14.65
2017-09-25T03:14:26.721Z,14.55
2017-09-25T03:15:12.472Z,14.58
2017-09-25T03:16:11.853Z,14.62
2017-09-25T03:17:27.105Z,14.61
2017-09-25T03:18:12.530Z,14.51
2017-09-25T03:19:12.239Z,14.57
2017-09-25T03:20:12.576Z,14.65
2017-09-25T03:22:12.623Z,14.57
2017-09-25T03:23:12.653Z,14.52
2017-09-25T03:24:12.663Z,14.51
2017-09-25T03:25:12.689Z,14.64
2017-09-25T03:26:12.716Z,14.64
2017-09-25T03:27:12.414Z,14.57
2017-09-25T03:28:12.119Z,14.65
2017-09-25T03:29:12.781Z,14.5
2017-09-25T03:30:27.393Z,14.54
2017-09-25T03:31:12.832Z,14.52
2017-09-25T03:32:12.848Z,14.61
2017-09-25T03:33:12.871Z,14.55
2017-09-25T03:34:27.480Z,14.51
2017-09-25T03:36:12.933Z,14.55
2017-09-25T03:37:27.545Z,14.61
2017-09-25T03:38:12.712Z,14.57
2017-09-25T03:39:13.001Z,14.55
2017-09-25T03:40:13.027Z,14.52
2017-09-25T03:41:13.043Z,14.52
2017-09-25T03:42:13.119Z,14.6
2017-09-25T03:43:12.771Z,14.57
2017-09-25T03:44:13.167Z,14.54
2017-09-25T03:45:13.136Z,14.61
2017-09-25T03:46:27.752Z,14.54
2017-09-25T03:47:12.859Z,14.6
2017-09-25T03:48:13.197Z,14.58
2017-09-25T03:49:13.224Z,14.54
2017-09-25T03:50:13.243Z,14.55
2017-09-25T03:51:13.272Z,14.58
2017-09-25T03:52:13.286Z,14.65
2017-09-25T03:54:13.015Z,14.57
2017-09-25T03:55:13.358Z,14.6
2017-09-25T03:56:13.377Z,14.51
2017-09-25T03:57:13.450Z,14.68
2017-09-25T03:58:13.420Z,14.6
2017-09-25T03:59:13.443Z,14.62
2017-09-25T04:00:13.467Z,14.55
2017-09-25T04:01:28.084Z,14.54
2017-09-25T04:03:13.553Z,14.69
2017-09-25T04:04:13.236Z,14.58
2017-09-25T04:05:13.579Z,14.61
2017-09-25T04:06:13.605Z,14.55
2017-09-25T04:07:13.627Z,14.58
2017-09-25T04:08:28.234Z,14.54
2017-09-25T04:09:13.671Z,14.54
2017-09-25T04:10:13.689Z,14.61
2017-09-25T04:11:13.713Z,14.6
2017-09-25T04:12:13.737Z,14.51
2017-09-25T04:13:13.758Z,14.51
2017-09-25T04:14:13.774Z,14.52
2017-09-25T04:15:28.397Z,14.51
2017-09-25T04:16:13.507Z,14.47
2017-09-25T04:17:13.528Z,14.5
2017-09-25T04:18:13.547Z,14.42
2017-09-25T04:19:13.569Z,14.42
2017-09-25T04:20:13.275Z,14.47
2017-09-25T04:21:13.931Z,14.42
2017-09-25T04:24:14.002Z,14.42
2017-09-25T04:25:28.625Z,14.37
2017-09-25T04:26:13.726Z,14.45
2017-09-25T04:27:13.750Z,14.42
2017-09-25T04:28:13.771Z,14.35
2017-09-25T04:29:14.115Z,14.36
2017-09-25T04:30:13.819Z,14.43
2017-09-25T04:31:14.164Z,14.36
2017-09-25T04:32:14.232Z,14.29
2017-09-25T04:33:28.792Z,14.33
2017-09-25T04:34:13.902Z,14.36
2017-09-25T04:35:13.927Z,14.33
2017-09-25T04:36:13.945Z,14.46
2017-09-25T04:37:14.290Z,14.4
2017-09-25T04:38:14.311Z,14.4
2017-09-25T04:39:14.015Z,14.47
2017-09-25T04:40:14.358Z,14.37
2017-09-25T04:41:14.381Z,14.52
2017-09-25T04:42:14.130Z,14.52
2017-09-25T04:43:14.423Z,14.37
2017-09-25T04:44:14.124Z,14.42
2017-09-25T04:45:14.145Z,14.39
2017-09-25T04:46:14.489Z,14.37
2017-09-25T04:47:14.510Z,14.32
2017-09-25T04:48:14.212Z,14.32
2017-09-25T04:49:29.146Z,14.22
2017-09-25T04:50:14.258Z,14.17
2017-09-25T04:51:14.602Z,14.2
2017-09-25T04:52:14.621Z,14.18
2017-09-25T04:53:14.645Z,14.24
2017-09-25T04:54:14.665Z,14.2
2017-09-25T04:55:14.688Z,14.21
2017-09-25T04:56:14.391Z,14.27
2017-09-25T04:57:14.739Z,14.29
2017-09-25T04:58:14.758Z,14.18
2017-09-25T04:59:14.774Z,14.22
2017-09-25T05:00:14.799Z,14.22
2017-09-25T05:01:14.500Z,14.2
2017-09-25T05:02:14.524Z,14.24
2017-09-25T05:03:14.543Z,14.17
2017-09-25T05:04:14.568Z,14.15
2017-09-25T05:05:29.499Z,14.22
2017-09-25T05:06:14.613Z,14.1
2017-09-25T05:07:14.635Z,14.14
2017-09-25T05:08:14.980Z,14.22
2017-09-25T05:09:14.694Z,14.07
2017-09-25T05:10:14.704Z,14.18
2017-09-25T05:11:29.629Z,14.12
2017-09-25T05:12:15.065Z,14.09
2017-09-25T05:13:14.769Z,14.07
2017-09-25T05:14:14.470Z,14.03
2017-09-25T05:15:14.811Z,14.1
2017-09-25T05:16:14.512Z,14.07
2017-09-25T05:17:15.175Z,14.02
2017-09-25T05:18:15.199Z,14.18
2017-09-25T05:19:15.217Z,14.15
2017-09-25T05:20:15.242Z,14.22
2017-09-25T05:22:14.966Z,14.2
2017-09-25T05:23:29.898Z,14.18
2017-09-25T05:25:15.357Z,14.18
2017-09-25T05:28:15.415Z,14.17
2017-09-25T05:29:15.131Z,14.2
2017-09-25T05:30:15.457Z,14.28
2017-09-25T05:31:15.484Z,14.29
2017-09-25T05:32:15.502Z,14.32
2017-09-25T05:33:15.522Z,14.33
2017-09-25T05:34:15.551Z,14.29
2017-09-25T05:35:15.301Z,14.32
2017-09-25T05:36:30.186Z,14.18
2017-09-25T05:37:15.295Z,14.17
2017-09-25T05:38:15.636Z,14.17
2017-09-25T05:39:15.349Z,14.25
2017-09-25T05:40:15.679Z,14.35
2017-09-25T05:41:15.068Z,14.28
2017-09-25T05:42:15.728Z,14.35
2017-09-25T05:43:15.749Z,14.36
2017-09-25T05:44:15.770Z,14.39
2017-09-25T05:45:15.793Z,14.33
2017-09-25T05:46:15.812Z,14.37
2017-09-25T05:47:15.836Z,14.39
2017-09-25T05:48:15.915Z,14.35
2017-09-25T05:49:15.881Z,14.33
2017-09-25T05:50:30.498Z,14.37
2017-09-25T05:51:15.601Z,14.43
2017-09-25T05:52:15.627Z,14.45
2017-09-25T05:53:15.649Z,14.43
2017-09-25T05:54:15.988Z,14.42
2017-09-25T05:55:16.056Z,14.39
2017-09-25T05:56:15.712Z,14.47
2017-09-25T05:57:16.057Z,14.51
2017-09-25T05:58:16.079Z,14.52
2017-09-25T05:59:30.690Z,14.62
2017-09-25T06:00:16.123Z,14.54
2017-09-25T06:01:15.828Z,14.46
2017-09-25T06:02:16.163Z,14.52
2017-09-25T06:03:15.872Z,14.51
2017-09-25T06:04:15.889Z,14.62
2017-09-25T06:05:15.914Z,14.64
2017-09-25T06:06:16.255Z,14.61
2017-09-25T06:07:15.958Z,14.61
2017-09-25T06:08:30.571Z,14.61
2017-09-25T06:09:16.318Z,14.75
2017-09-25T06:10:16.344Z,14.52
2017-09-25T06:11:30.955Z,14.61
2017-09-25T06:12:30.658Z,14.51
2017-09-25T06:13:16.412Z,14.72
2017-09-25T06:14:16.428Z,14.69
2017-09-25T06:15:16.452Z,14.6
2017-09-25T06:16:16.162Z,14.6
2017-09-25T06:18:16.520Z,14.51
2017-09-25T06:19:16.542Z,14.58
2017-09-25T06:20:16.246Z,14.57
2017-09-25T06:21:16.590Z,14.46
2017-09-25T06:22:16.289Z,14.51
2017-09-25T06:23:16.312Z,14.69
2017-09-25T06:24:31.246Z,14.62
2017-09-25T06:25:16.675Z,14.69
2017-09-25T06:26:16.696Z,14.62
2017-09-25T06:27:16.401Z,14.64
2017-09-25T06:28:16.423Z,14.62
2017-09-25T06:29:16.762Z,14.78
2017-09-25T06:31:16.490Z,14.75
2017-09-25T06:32:16.830Z,14.89
2017-09-25T06:33:16.853Z,14.91
2017-09-25T06:34:16.874Z,14.83
2017-09-25T06:35:16.579Z,14.8
2017-09-25T06:36:16.648Z,14.75
2017-09-25T06:37:16.938Z,14.78
2017-09-25T06:38:16.963Z,14.81
2017-09-25T06:39:16.988Z,14.81
2017-09-25T06:40:31.597Z,14.86
2017-09-25T06:41:16.714Z,14.83
2017-09-25T06:42:16.732Z,14.91
2017-09-25T06:43:16.758Z,14.94
2017-09-25T06:44:16.780Z,14.94
2017-09-25T06:45:16.802Z,15.01
2017-09-25T06:46:16.821Z,15.09
2017-09-25T06:47:16.849Z,14.98
2017-09-25T06:48:16.866Z,14.99
2017-09-25T06:49:16.890Z,14.99
2017-09-25T06:50:17.239Z,14.91
2017-09-25T06:51:16.930Z,15.01
2017-09-25T06:52:16.957Z,15.01
2017-09-25T06:53:16.983Z,15.13
2017-09-25T06:54:17.005Z,15.1
2017-09-25T06:55:17.022Z,15.27
2017-09-25T06:56:31.956Z,15.34
2017-09-25T06:57:17.385Z,15.32
2017-09-25T06:58:17.460Z,15.27
2017-09-25T06:59:17.118Z,15.31
2017-09-25T07:00:32.045Z,15.27
2017-09-25T07:01:17.196Z,15.38
2017-09-25T07:02:17.181Z,15.46
2017-09-25T07:03:17.524Z,15.36
2017-09-25T07:04:17.224Z,15.29
2017-09-25T07:05:17.561Z,15.29
2017-09-25T07:06:17.590Z,15.31
2017-09-25T07:07:17.295Z,15.41
2017-09-25T07:09:17.657Z,15.36
2017-09-25T07:10:17.360Z,15.28
2017-09-25T07:11:32.345Z,15.25
2017-09-25T07:12:17.729Z,15.21
2017-09-25T07:13:17.749Z,15.23
2017-09-25T07:14:17.777Z,15.19
2017-09-25T07:15:17.157Z,15.21
2017-09-25T07:18:17.859Z,15.11
2017-09-25T07:19:17.569Z,15.19
2017-09-25T07:20:17.904Z,15.23
2017-09-25T07:21:17.922Z,15.21
2017-09-25T07:22:17.949Z,15.17
2017-09-25T07:23:17.975Z,15.17
2017-09-25T07:24:17.680Z,15.23
2017-09-25T07:25:17.698Z,15.21
2017-09-25T07:26:17.720Z,15.14
2017-09-25T07:27:18.063Z,15.14
2017-09-25T07:28:32.677Z,15.03
2017-09-25T07:30:32.718Z,15.19
2017-09-25T07:31:18.149Z,15.23
2017-09-25T07:32:32.765Z,15.14
2017-09-25T07:33:18.198Z,15.23
2017-09-25T07:34:18.219Z,15.25
2017-09-25T07:35:17.604Z,15.27
2017-09-25T07:36:18.267Z,15.29
2017-09-25T07:37:17.966Z,15.23
2017-09-25T07:38:18.312Z,15.27
2017-09-25T07:39:18.330Z,15.13
2017-09-25T07:40:18.348Z,15.13
2017-09-25T07:41:18.375Z,15.17
2017-09-25T07:42:18.399Z,15.13
2017-09-25T07:43:32.693Z,15.02
2017-09-25T07:44:18.441Z,15.17
2017-09-25T07:45:18.462Z,15.25
2017-09-25T07:46:18.169Z,15.28
2017-09-25T07:47:17.873Z,15.31
2017-09-25T07:48:18.215Z,15.31
2017-09-25T07:49:18.234Z,15.34
2017-09-25T07:50:18.575Z,15.28
2017-09-25T07:51:18.603Z,15.27
2017-09-25T07:52:18.304Z,15.35
2017-09-25T07:53:18.646Z,15.28
2017-09-25T07:54:18.353Z,15.31
2017-09-25T07:55:18.370Z,15.25
2017-09-25T07:56:18.394Z,15.31
2017-09-25T07:57:18.416Z,15.39
2017-09-25T07:58:18.438Z,15.36
2017-09-25T07:59:33.052Z,15.43
2017-09-25T08:00:18.482Z,15.53
2017-09-25T08:01:18.505Z,15.47
2017-09-25T08:02:18.534Z,15.49
2017-09-25T08:03:18.555Z,15.51
2017-09-25T08:04:18.573Z,15.49
2017-09-25T08:05:18.913Z,15.47
2017-09-25T08:06:18.940Z,15.59
2017-09-25T08:07:18.643Z,15.59
2017-09-25T08:08:18.981Z,15.47
2017-09-25T08:09:19.003Z,15.44
2017-09-25T08:10:19.028Z,15.41
2017-09-25T08:11:19.049Z,15.43
2017-09-25T08:12:19.074Z,15.39
2017-09-25T08:13:18.775Z,15.35
2017-09-25T08:14:19.117Z,15.36
2017-09-25T08:15:33.733Z,15.43
2017-09-25T08:16:18.846Z,15.38
2017-09-25T08:17:19.181Z,15.49
2017-09-25T08:18:19.209Z,15.46
2017-09-25T08:19:33.820Z,15.43
2017-09-25T08:20:33.845Z,15.47
2017-09-25T08:21:19.273Z,15.43
2017-09-25T08:23:19.323Z,15.51
2017-09-25T08:24:19.024Z,15.57
2017-09-25T08:25:19.049Z,15.64
2017-09-25T08:26:19.389Z,15.6
2017-09-25T08:27:19.414Z,15.51
2017-09-25T08:28:19.431Z,15.59
2017-09-25T08:29:19.452Z,15.54
2017-09-25T08:30:34.075Z,15.69
2017-09-25T08:31:33.773Z,15.8
2017-09-25T08:32:19.519Z,15.74
2017-09-25T08:33:19.549Z,15.87
2017-09-25T08:34:19.620Z,15.87
2017-09-25T08:35:34.183Z,16.01
2017-09-25T08:38:19.661Z,16.12
2017-09-25T08:39:19.687Z,16.07
2017-09-25T08:40:19.390Z,16.01
2017-09-25T08:41:19.408Z,15.97
2017-09-25T08:42:19.434Z,16.01
2017-09-25T08:43:19.775Z,16.11
2017-09-25T08:44:19.798Z,16
2017-09-25T08:45:19.822Z,16.04
2017-09-25T08:46:34.437Z,16.17
2017-09-25T08:47:19.877Z,16.2
2017-09-25T08:48:19.577Z,16.08
2017-09-25T08:49:19.590Z,16.04
2017-09-25T08:50:19.934Z,15.97
2017-09-25T08:51:19.640Z,16.01
2017-09-25T08:52:19.980Z,15.93
2017-09-25T08:53:20.060Z,15.94
2017-09-25T08:54:19.708Z,15.89
2017-09-25T08:55:20.055Z,15.86
2017-09-25T08:56:20.076Z,15.86
2017-09-25T08:57:19.774Z,15.84
2017-09-25T08:58:20.166Z,15.83
2017-09-25T08:59:19.827Z,15.87
2017-09-25T09:00:20.162Z,15.8
2017-09-25T09:01:20.185Z,15.84
2017-09-25T09:02:20.210Z,15.82
2017-09-25T09:03:20.233Z,15.89
2017-09-25T09:05:20.307Z,15.76
2017-09-25T09:06:20.360Z,15.76
2017-09-25T09:07:20.327Z,15.72
2017-09-25T09:08:20.346Z,15.82
2017-09-25T09:09:20.371Z,15.86
2017-09-25T09:10:20.388Z,15.93
2017-09-25T09:11:20.416Z,15.82
2017-09-25T09:12:20.442Z,16
2017-09-25T09:13:20.141Z,16
2017-09-25T09:14:20.163Z,16.01
2017-09-25T09:15:20.506Z,16.07
2017-09-25T09:17:20.552Z,16.05
2017-09-25T09:18:35.168Z,16.11
2017-09-25T09:19:20.606Z,16.14
2017-09-25T09:20:20.617Z,16.11
2017-09-25T09:21:20.693Z,16.09
2017-09-25T09:22:20.663Z,16.11
2017-09-25T09:24:20.710Z,16.11
2017-09-25T09:25:20.772Z,16.09
2017-09-25T09:26:20.757Z,16.08
2017-09-25T09:27:20.781Z,15.94
2017-09-25T09:28:20.805Z,15.92
2017-09-25T09:29:20.826Z,15.9
2017-09-25T09:30:20.851Z,15.69
2017-09-25T09:31:20.870Z,15.64
2017-09-25T09:32:20.894Z,15.57
2017-09-25T09:33:20.922Z,15.59
2017-09-25T09:34:35.527Z,15.53
2017-09-25T09:35:20.961Z,15.5
2017-09-25T09:36:20.993Z,15.56
2017-09-25T09:37:21.006Z,15.44
2017-09-25T09:38:20.716Z,15.47
2017-09-25T09:39:21.053Z,15.47
2017-09-25T09:41:21.099Z,15.44
2017-09-25T09:42:21.123Z,15.32
2017-09-25T09:43:21.142Z,15.34
2017-09-25T09:44:21.164Z,15.29
2017-09-25T09:45:21.190Z,15.28
2017-09-25T09:46:21.215Z,15.28
2017-09-25T09:47:20.917Z,15.35
2017-09-25T09:48:20.620Z,15.34
2017-09-25T09:49:20.962Z,15.27
2017-09-25T09:50:35.893Z,15.28
2017-09-25T09:51:21.322Z,15.28
2017-09-25T09:53:35.961Z,15.27
2017-09-25T09:54:35.982Z,15.2
2017-09-25T09:55:21.416Z,15.28
2017-09-25T09:56:21.116Z,15.23
2017-09-25T09:57:20.823Z,15.39
2017-09-25T09:58:21.163Z,15.39
2017-09-25T09:59:21.188Z,15.27
2017-09-25T10:00:21.210Z,15.36
2017-09-25T10:01:21.232Z,15.27
2017-09-25T10:02:21.577Z,15.27
2017-09-25T10:03:21.280Z,15.34
2017-09-25T10:04:20.980Z,15.32
2017-09-25T10:05:21.320Z,15.29
2017-09-25T10:06:36.253Z,15.28
2017-09-25T10:07:21.686Z,15.27
2017-09-25T10:08:21.708Z,15.32
2017-09-25T10:09:21.742Z,15.29
2017-09-25T10:11:21.462Z,15.35
2017-09-25T10:12:21.480Z,15.44
2017-09-25T10:13:21.504Z,15.41
2017-09-25T10:14:21.851Z,15.34
2017-09-25T10:15:21.866Z,15.35
2017-09-25T10:16:21.894Z,15.39
2017-09-25T10:17:21.918Z,15.46
2017-09-25T10:18:21.613Z,15.5
2017-09-25T10:19:21.961Z,15.53
2017-09-25T10:20:21.979Z,15.49
2017-09-25T10:21:36.276Z,15.59
2017-09-25T10:22:22.024Z,15.56
2017-09-25T10:23:22.048Z,15.49
2017-09-25T10:26:22.119Z,15.46
2017-09-25T10:27:22.145Z,15.41
2017-09-25T10:29:22.189Z,15.25
2017-09-25T10:30:22.207Z,15.29
2017-09-25T10:31:22.227Z,15.29
2017-09-25T10:32:22.292Z,15.27
2017-09-25T10:33:22.275Z,15.23
2017-09-25T10:34:22.297Z,15.19
2017-09-25T10:35:22.320Z,15.27
2017-09-25T10:36:22.345Z,15.28
2017-09-25T10:37:22.046Z,15.28
2017-09-25T10:38:22.387Z,15.29
2017-09-25T10:39:22.409Z,15.29
2017-09-25T10:40:22.113Z,15.27
2017-09-25T10:41:22.460Z,15.25
2017-09-25T10:42:22.479Z,15.07
2017-09-25T10:43:22.505Z,15.14
2017-09-25T10:46:22.571Z,15.11
2017-09-25T10:47:22.590Z,15.14
2017-09-25T10:48:22.615Z,15.11
2017-09-25T10:49:22.318Z,15.13
2017-09-25T10:50:22.659Z,15.13
2017-09-25T10:51:22.679Z,15.09
2017-09-25T10:52:22.705Z,15.06
2017-09-25T10:53:37.316Z,14.99
2017-09-25T10:54:22.746Z,15.06
2017-09-25T10:55:22.772Z,15.11
2017-09-25T10:56:22.793Z,15.14
2017-09-25T10:57:37.407Z,15.25
2017-09-25T10:58:22.850Z,15.23
2017-09-25T11:00:22.888Z,15.31
2017-09-25T11:01:22.587Z,15.29
2017-09-25T11:02:22.610Z,15.39
2017-09-25T11:03:22.632Z,15.5
2017-09-25T11:04:22.975Z,15.53
2017-09-25T11:05:22.997Z,15.65
2017-09-25T11:06:23.020Z,15.65
2017-09-25T11:07:23.043Z,15.84
2017-09-25T11:08:23.065Z,15.87
2017-09-25T11:09:37.683Z,15.87
2017-09-25T11:10:23.109Z,15.97
2017-09-25T11:12:37.750Z,16.02
2017-09-25T11:13:23.178Z,16.01
2017-09-25T11:15:23.232Z,16.3
2017-09-25T11:16:23.249Z,16.35
2017-09-25T11:17:23.270Z,16.27
2017-09-25T11:18:23.292Z,16.24
2017-09-25T11:19:23.321Z,16.28
2017-09-25T11:20:23.346Z,16.33
2017-09-25T11:21:23.361Z,16.34
2017-09-25T11:22:23.386Z,16.38
2017-09-25T11:23:23.091Z,16.31
2017-09-25T11:24:23.428Z,16.42
2017-09-25T11:25:38.044Z,16.3
2017-09-25T11:26:23.478Z,16.33
2017-09-25T11:27:38.093Z,16.28
2017-09-25T11:28:23.214Z,16.41
2017-09-25T11:29:23.548Z,16.48
2017-09-25T11:30:23.251Z,16.38
2017-09-25T11:31:23.596Z,16.5
2017-09-25T11:32:23.617Z,16.52
2017-09-25T11:33:23.322Z,16.53
2017-09-25T11:34:23.345Z,16.52
2017-09-25T11:35:23.687Z,16.63
2017-09-25T11:36:23.716Z,16.67
2017-09-25T11:37:23.416Z,16.78
2017-09-25T11:38:23.120Z,16.93
2017-09-25T11:39:23.777Z,17.01
2017-09-25T11:40:23.481Z,17.01
2017-09-25T11:41:38.421Z,16.97
2017-09-25T11:42:23.541Z,16.94
2017-09-25T11:43:23.554Z,16.73
2017-09-25T11:44:38.491Z,16.63
2017-09-25T11:45:38.513Z,16.68
2017-09-25T11:46:23.944Z,16.66
2017-09-25T11:47:23.975Z,16.81
2017-09-25T11:48:23.996Z,16.71
2017-09-25T11:49:23.700Z,16.68
2017-09-25T11:50:24.054Z,16.64
2017-09-25T11:51:24.057Z,16.6
2017-09-25T11:52:24.083Z,16.53
2017-09-25T11:53:24.106Z,16.52
2017-09-25T11:54:24.136Z,16.35
2017-09-25T11:55:24.156Z,16.3
2017-09-25T11:56:38.454Z,16.39
2017-09-25T11:57:24.205Z,16.3
2017-09-25T11:58:24.225Z,16.25
2017-09-25T11:59:38.845Z,16.27
2017-09-25T12:00:24.271Z,16.2
2017-09-25T12:01:24.301Z,16.07
2017-09-25T12:02:24.316Z,16
2017-09-25T12:03:23.703Z,15.89
2017-09-25T12:04:24.373Z,15.78
2017-09-25T12:05:24.389Z,15.76
2017-09-25T12:06:24.096Z,15.69
2017-09-25T12:07:24.435Z,15.69
2017-09-25T12:08:24.141Z,15.57
2017-09-25T12:09:24.163Z,15.56
2017-09-25T12:10:24.188Z,15.57
2017-09-25T12:11:24.527Z,15.56
2017-09-25T12:12:24.233Z,15.57
2017-09-25T12:13:24.259Z,15.59
2017-09-25T12:14:24.278Z,15.57
2017-09-25T12:15:39.212Z,15.69
2017-09-25T12:18:24.371Z,15.68
2017-09-25T12:19:24.394Z,15.72
2017-09-25T12:20:24.420Z,15.69
2017-09-25T12:21:24.439Z,15.89
2017-09-25T12:22:24.782Z,15.86
2017-09-25T12:23:24.810Z,15.9
2017-09-25T12:24:24.826Z,16
2017-09-25T12:25:24.533Z,15.86
2017-09-25T12:26:24.874Z,15.93
2017-09-25T12:27:24.901Z,15.97
2017-09-25T12:28:39.192Z,16.05
2017-09-25T12:29:24.660Z,16.05
2017-09-25T12:30:39.558Z,16.27
2017-09-25T12:31:24.997Z,16.24
2017-09-25T12:32:24.693Z,16.39
2017-09-25T12:33:39.657Z,16.41
2017-09-25T12:34:24.422Z,16.43
2017-09-25T12:35:39.669Z,16.57
2017-09-25T12:36:24.794Z,16.48
2017-09-25T12:37:24.808Z,16.53
2017-09-25T12:38:24.832Z,16.49
2017-09-25T12:39:24.859Z,16.58
2017-09-25T12:40:25.199Z,16.5
2017-09-25T12:41:25.228Z,16.58
2017-09-25T12:42:25.253Z,16.57
2017-09-25T12:43:25.271Z,16.71
2017-09-25T12:44:39.884Z,16.57
2017-09-25T12:45:25.325Z,16.5
2017-09-25T12:46:25.341Z,16.61
2017-09-25T12:47:39.953Z,16.6
2017-09-25T12:48:25.067Z,16.58
2017-09-25T12:50:25.435Z,16.49
2017-09-25T12:52:25.160Z,16.73
2017-09-25T12:53:25.501Z,16.79
2017-09-25T12:54:25.522Z,16.79
2017-09-25T12:55:25.547Z,16.66
2017-09-25T12:56:25.577Z,16.63
2017-09-25T12:57:25.275Z,16.67
2017-09-25T12:58:25.622Z,16.79
2017-09-25T12:59:25.322Z,16.71
2017-09-25T13:00:40.256Z,16.81
2017-09-25T13:01:40.281Z,16.85
2017-09-25T13:02:25.716Z,16.86
2017-09-25T13:03:25.731Z,16.79
2017-09-25T13:04:25.758Z,16.89
2017-09-25T13:05:25.785Z,16.81
2017-09-25T13:07:25.834Z,16.81
2017-09-25T13:08:25.895Z,16.82
2017-09-25T13:09:25.556Z,16.75
2017-09-25T13:10:25.900Z,16.67
2017-09-25T13:11:25.925Z,16.73
2017-09-25T13:12:25.624Z,16.68
2017-09-25T13:13:25.651Z,16.64
2017-09-25T13:14:26.039Z,16.66
2017-09-25T13:15:26.018Z,16.7
2017-09-25T13:16:40.629Z,16.64
2017-09-25T13:17:26.063Z,16.68
2017-09-25T13:18:25.770Z,16.75
2017-09-25T13:20:40.404Z,16.79
2017-09-25T13:21:25.839Z,16.86
2017-09-25T13:22:26.182Z,16.85
2017-09-25T13:23:25.564Z,16.73
2017-09-25T13:24:25.906Z,16.64
2017-09-25T13:25:25.934Z,16.68
2017-09-25T13:26:25.951Z,16.7
2017-09-25T13:27:26.299Z,16.67
2017-09-25T13:28:26.356Z,16.63
2017-09-25T13:29:26.025Z,16.5
2017-09-25T13:30:26.366Z,16.49
2017-09-25T13:31:40.985Z,16.52
2017-09-25T13:32:26.143Z,16.6
2017-09-25T13:33:26.441Z,16.61
2017-09-25T13:34:26.140Z,16.7
2017-09-25T13:35:26.163Z,16.71
2017-09-25T13:36:26.515Z,16.7
2017-09-25T13:38:26.554Z,16.67
2017-09-25T13:40:26.601Z,16.64
2017-09-25T13:41:25.985Z,16.66
2017-09-25T13:42:26.648Z,16.7
2017-09-25T13:43:26.676Z,16.76
2017-09-25T13:44:26.372Z,16.7
2017-09-25T13:45:26.717Z,16.78
2017-09-25T13:46:26.738Z,16.73